Terminal Aerodrome Forecast
Issued by NWS

Home | Current Version | Previous Version | Text Only | Print | Product List | Glossary On
Versions: 1 2 3 4 5 6 7 8 9 10 11 12 13 14 15 16
000
FTUS44 KLIX 221100
TAFGPT
TAF
KGPT 221138Z 2212/2312 10005KT P6SM OVC006
     FM221500 16011KT P6SM BKN020
     FM222300 20010KT P6SM BKN008
     FM230400 22011KT P6SM BKN003
     FM230600 23010KT P6SM VCTS BKN003CB=

USA.gov is the U.S. government's official web portal to all federal, state and local government web resources and services.